Time;durP1;ratioP1;P1;durP2;ratioP2;P2;SDS_P1;SDS_P2;PMS_P1;PMS_P2;Temp;Humidity;BMP_temperature;BMP_pressure;BME280_temperature;BME280_humidity;BME280_pressure;Samples;Min_cycle;Max_cycle;Signal;HPM_P1;HPM_P2
2022/02/28 00:01:00;;;;;;;2.67;0.40;;;;;;;1.96;77.32;97291.09;5086843;28;20059;-58
2022/02/28 00:03:27;;;;;;;0.40;0.40;;;;;;;1.39;78.45;97268.13;5085717;28;20048;-59
2022/02/28 00:05:54;;;;;;;1.75;0.50;;;;;;;1.16;78.26;97181.88;5066084;28;20125;-58
2022/02/28 00:08:21;;;;;;;1.98;0.40;;;;;;;1.82;78.09;97295.03;5066518;28;20131;-58
2022/02/28 00:10:48;;;;;;;0.63;0.30;;;;;;;1.64;77.72;97312.34;5066672;28;20060;-57
2022/02/28 00:13:15;;;;;;;0.30;0.30;;;;;;;1.83;77.95;97293.91;5066250;28;20048;-57
2022/02/28 00:15:42;;;;;;;1.00;0.50;;;;;;;1.89;79.65;97298.13;5066189;28;20044;-57
2022/02/28 00:18:08;;;;;;;0.65;0.50;;;;;;;1.90;78.42;97299.75;5066078;28;20059;-59
2022/02/28 00:20:35;;;;;;;2.05;0.60;;;;;;;1.72;77.33;97271.50;5066828;28;20435;-56
2022/02/28 00:23:02;;;;;;;0.30;0.30;;;;;;;1.55;77.71;97274.03;5066411;28;20070;-57
2022/02/28 00:25:31;;;;;;;1.48;0.60;;;;;;;1.52;79.87;97223.63;5066092;28;20099;-56
2022/02/28 00:28:00;;;;;;;3.22;0.95;;;;;;;1.15;77.97;97185.72;5065473;28;20049;-58
2022/02/28 00:30:26;;;;;;;0.98;0.60;;;;;;;2.00;78.27;97283.94;5065587;28;20525;-57
2022/02/28 00:32:53;;;;;;;1.50;0.40;;;;;;;1.88;77.17;97274.66;5065886;28;20537;-57
2022/02/28 00:35:20;;;;;;;1.67;0.70;;;;;;;1.54;79.38;97199.56;5065849;28;20534;-57
2022/02/28 00:37:46;;;;;;;1.70;0.40;;;;;;;1.87;76.41;97273.03;5065589;28;20044;-57
2022/02/28 00:40:13;;;;;;;0.93;0.80;;;;;;;1.99;77.20;97270.56;5065918;28;20318;-56
2022/02/28 00:42:40;;;;;;;0.40;0.40;;;;;;;2.11;76.63;97270.81;5065763;28;20516;-58
2022/02/28 00:45:07;;;;;;;2.83;1.10;;;;;;;2.27;75.96;97272.06;5065587;28;20044;-57
2022/02/28 00:47:34;;;;;;;2.45;0.70;;;;;;;2.26;75.62;97254.84;5065462;28;20455;-58
2022/02/28 00:50:03;;;;;;;1.85;0.75;;;;;;;2.19;75.31;97272.81;5065786;28;20197;-57
2022/02/28 00:52:30;;;;;;;2.95;0.70;;;;;;;2.00;74.44;97253.06;5065837;28;20056;-57
2022/02/28 00:54:57;;;;;;;0.75;0.45;;;;;;;2.03;71.39;97261.44;5065624;28;20048;-57
2022/02/28 00:57:23;;;;;;;0.65;0.47;;;;;;;1.98;73.73;97258.03;5064067;28;20048;-56
2022/02/28 00:59:50;;;;;;;0.52;0.40;;;;;;;2.13;74.46;97244.00;5065534;28;20048;-56
2022/02/28 01:02:17;;;;;;;0.68;0.40;;;;;;;1.94;72.64;97224.25;5065612;28;20060;-58
2022/02/28 01:04:44;;;;;;;1.67;0.70;;;;;;;1.65;72.31;97182.91;5074883;28;20553;-58
2022/02/28 01:07:11;;;;;;;0.52;0.50;;;;;;;2.11;71.15;97251.69;5085457;28;20155;-55
2022/02/28 01:09:38;;;;;;;0.73;0.43;;;;;;;2.15;72.57;97230.84;5083931;28;20044;-58
2022/02/28 01:12:07;;;;;;;0.73;0.40;;;;;;;2.00;72.73;97239.41;5085023;28;20445;-58
2022/02/28 01:14:36;;;;;;;0.35;0.30;;;;;;;1.36;72.13;97154.13;5085666;28;20060;-58
2022/02/28 01:17:04;;;;;;;0.77;0.50;;;;;;;2.00;72.70;97237.50;5086030;28;20068;-55
2022/02/28 01:19:31;;;;;;;0.68;0.45;;;;;;;1.91;73.53;97241.28;5085510;28;20087;-59
2022/02/28 01:21:57;;;;;;;1.83;0.68;;;;;;;2.08;73.41;97236.75;5085471;28;20048;-56
2022/02/28 01:24:24;;;;;;;1.15;0.43;;;;;;;2.02;73.20;97215.31;5083973;28;20048;-57
2022/02/28 01:26:51;;;;;;;1.30;0.50;;;;;;;2.05;72.79;97242.03;5084957;28;20521;-57
2022/02/28 01:29:18;;;;;;;1.75;0.70;;;;;;;1.95;73.42;97204.84;5085169;28;20505;-58
2022/02/28 01:31:44;;;;;;;3.33;0.80;;;;;;;2.34;72.98;97223.25;5085174;28;20051;-56
2022/02/28 01:34:11;;;;;;;1.55;0.68;;;;;;;2.47;72.30;97222.34;5085100;28;20529;-57
2022/02/28 01:36:38;;;;;;;2.25;0.88;;;;;;;2.49;71.48;97206.44;5083556;28;20054;-59
2022/02/28 01:39:05;;;;;;;1.38;0.70;;;;;;;2.05;71.86;97116.38;5085020;28;20075;-56
2022/02/28 01:41:31;;;;;;;0.85;0.50;;;;;;;2.64;72.73;97201.34;5084441;28;20052;-58
2022/02/28 01:43:58;;;;;;;2.88;1.38;;;;;;;2.66;72.08;97269.38;5084594;28;20138;-56
2022/02/28 01:46:25;;;;;;;1.08;0.60;;;;;;;2.59;72.25;97197.97;5084329;28;20499;-57
2022/02/28 01:48:52;;;;;;;1.08;0.60;;;;;;;2.67;73.93;97178.84;5084837;28;20054;-56
2022/02/28 01:51:18;;;;;;;2.05;0.82;;;;;;;2.15;71.28;97143.41;5084722;28;20554;-56
2022/02/28 01:53:46;;;;;;;0.63;0.50;;;;;;;2.18;72.54;97165.44;5082672;28;20059;-55
2022/02/28 01:56:13;;;;;;;1.33;0.57;;;;;;;2.42;72.68;97182.28;5084578;28;20444;-57
2022/02/28 01:58:39;;;;;;;0.82;0.47;;;;;;;2.39;73.05;97176.63;5084369;28;20476;-57
2022/02/28 02:01:08;;;;;;;0.63;0.50;;;;;;;1.89;74.13;97128.81;5084404;28;20047;-57
2022/02/28 02:03:35;;;;;;;0.40;0.40;;;;;;;2.28;72.83;97186.22;5082874;28;20148;-56
2022/02/28 02:06:07;;;;;;;0.63;0.50;;;;;;;2.04;69.95;97150.28;5064199;28;20061;-57
2022/02/28 02:08:34;;;;;;;0.40;0.40;;;;;;;2.30;69.33;97178.53;5062404;28;20894;-57
2022/02/28 02:11:03;;;;;;;0.30;0.30;;;;;;;2.37;69.65;97181.63;5064324;28;20483;-59
2022/02/28 02:13:31;;;;;;;0.75;0.40;;;;;;;2.33;70.44;97189.63;5063800;28;20044;-58
2022/02/28 02:15:59;;;;;;;0.60;0.40;;;;;;;1.98;67.52;97143.31;5064082;28;20546;-57
2022/02/28 02:18:26;;;;;;;1.08;0.40;;;;;;;2.43;68.21;97194.03;5062484;28;20105;-55
2022/02/28 02:20:53;;;;;;;0.30;0.30;;;;;;;2.26;68.82;97196.69;5062920;28;20053;-55
2022/02/28 02:23:22;;;;;;;0.30;0.30;;;;;;;2.13;68.09;97195.66;5063646;28;20514;-57
2022/02/28 02:25:49;;;;;;;1.50;0.60;;;;;;;2.04;69.26;97202.16;5064065;28;20048;-59
2022/02/28 02:28:17;;;;;;;0.82;0.50;;;;;;;1.96;71.98;97200.19;5063989;28;20048;-56
2022/02/28 02:30:49;;;;;;;1.05;0.40;;;;;;;1.58;73.62;97166.19;5064226;28;20487;-57
2022/02/28 02:33:17;;;;;;;0.88;0.60;;;;;;;1.78;72.36;97214.81;5062925;28;20469;-58
2022/02/28 02:35:52;;;;;;;0.88;0.43;;;;;;;1.79;73.10;97211.78;5062647;28;20071;-57
2022/02/28 02:38:19;;;;;;;0.50;0.50;;;;;;;1.49;73.06;97163.38;5063735;28;20062;-56
2022/02/28 02:40:46;;;;;;;0.95;0.47;;;;;;;1.93;73.90;97211.75;5063668;28;20075;-57
2022/02/28 02:43:12;;;;;;;0.40;0.40;;;;;;;1.96;72.06;97200.19;5063599;28;20071;-58
2022/02/28 02:45:39;;;;;;;0.57;0.50;;;;;;;1.84;74.19;97214.41;5063541;28;20139;-57
2022/02/28 02:48:15;;;;;;;0.60;0.50;;;;;;;1.76;72.69;97195.19;5063789;28;20053;-55
2022/02/28 02:50:42;;;;;;;1.50;0.70;;;;;;;1.54;71.04;97138.69;5064256;28;20518;-56
2022/02/28 02:53:09;;;;;;;1.10;0.82;;;;;;;1.54;71.34;97144.97;5063303;28;20048;-56
2022/02/28 02:55:37;;;;;;;3.60;0.82;;;;;;;1.97;70.19;97196.31;5063727;28;20048;-58
2022/02/28 02:58:05;;;;;;;1.77;0.50;;;;;;;2.03;69.56;97190.44;5051841;28;20060;-57
2022/02/28 03:00:33;;;;;;;1.75;0.90;;;;;;;1.97;69.71;97197.16;5061906;28;20063;-57
2022/02/28 03:03:00;;;;;;;2.65;1.00;;;;;;;2.09;69.12;97185.63;5063372;28;20404;-56
2022/02/28 03:05:27;;;;;;;3.83;0.93;;;;;;;1.57;69.68;97127.16;5078349;28;20064;-57
2022/02/28 03:07:54;;;;;;;3.03;1.35;;;;;;;1.84;68.81;97157.03;5083890;28;20060;-56
2022/02/28 03:10:22;;;;;;;3.92;1.10;;;;;;;1.96;68.79;97170.16;5083700;28;20082;-56
2022/02/28 03:12:48;;;;;;;6.95;2.10;;;;;;;2.03;69.48;97184.16;5083170;28;20537;-57
2022/02/28 03:15:15;;;;;;;2.65;1.02;;;;;;;2.16;72.12;97166.88;5083397;28;20048;-56
2022/02/28 03:17:42;;;;;;;1.80;0.60;;;;;;;2.04;69.60;97169.41;5083713;28;20052;-56
2022/02/28 03:20:09;;;;;;;1.90;1.08;;;;;;;2.06;70.79;97178.06;5083026;28;20052;-57
2022/02/28 03:22:36;;;;;;;9.02;2.08;;;;;;;2.01;70.67;97175.47;5083573;28;20078;-57
2022/02/28 03:25:04;;;;;;;4.72;1.33;;;;;;;1.87;72.83;97175.53;5083831;28;20051;-57
2022/02/28 03:27:32;;;;;;;1.55;0.73;;;;;;;1.95;72.25;97182.16;5083539;28;20048;-55
2022/02/28 03:29:59;;;;;;;0.82;0.50;;;;;;;1.73;73.24;97173.97;5083571;28;20048;-56
2022/02/28 03:32:27;;;;;;;2.22;0.80;;;;;;;1.51;73.70;97167.44;5083623;28;20491;-56
2022/02/28 03:34:53;;;;;;;0.95;0.43;;;;;;;1.62;71.67;97126.22;5087216;28;20055;-56
2022/02/28 03:37:20;;;;;;;8.23;1.40;;;;;;;1.95;73.05;97176.72;5086888;28;20542;-58
2022/02/28 03:39:47;;;;;;;1.23;0.40;;;;;;;1.79;72.72;97194.63;5087319;28;20430;-56
2022/02/28 03:42:14;;;;;;;1.13;0.68;;;;;;;1.91;72.89;97186.66;5087770;28;20138;-57
2022/02/28 03:44:41;;;;;;;0.50;0.50;;;;;;;1.89;74.24;97199.81;5087256;28;20418;-56
2022/02/28 03:47:08;;;;;;;0.65;0.40;;;;;;;1.81;73.71;97192.34;5086839;28;20052;-56
2022/02/28 03:49:35;;;;;;;0.30;0.30;;;;;;;1.83;72.86;97201.06;5085651;28;20059;-57
2022/02/28 03:52:02;;;;;;;0.47;0.45;;;;;;;1.64;71.62;97159.47;5085921;28;20311;-56
2022/02/28 03:54:28;;;;;;;1.15;0.50;;;;;;;1.77;70.34;97202.31;5086686;28;20054;-56
2022/02/28 03:56:55;;;;;;;0.90;0.60;;;;;;;1.84;70.44;97178.06;5086438;28;20052;-57
2022/02/28 03:59:22;;;;;;;1.88;0.80;;;;;;;1.49;70.92;97125.97;5086686;28;20139;-56
2022/02/28 04:01:48;;;;;;;1.83;0.82;;;;;;;1.82;70.55;97183.84;5085161;28;20089;-56
2022/02/28 04:04:17;;;;;;;3.72;0.60;;;;;;;1.97;68.74;97185.41;5079892;28;20532;-57
2022/02/28 04:06:46;;;;;;;1.33;0.60;;;;;;;1.63;68.61;97114.19;5065961;28;20048;-57
2022/02/28 04:09:14;;;;;;;1.25;0.57;;;;;;;2.03;68.62;97173.22;5066386;28;20048;-57
2022/02/28 04:11:41;;;;;;;0.93;0.50;;;;;;;1.93;68.95;97178.97;5065137;28;20052;-55
2022/02/28 04:14:08;;;;;;;0.85;0.80;;;;;;;2.01;68.73;97183.69;5064641;28;20495;-57
2022/02/28 04:16:35;;;;;;;1.00;0.50;;;;;;;1.76;67.46;97129.69;5064636;28;20052;-57
2022/02/28 04:19:02;;;;;;;0.55;0.50;;;;;;;0.06;67.37;96883.81;5064399;28;20136;-58
2022/02/28 04:21:29;;;;;;;1.35;0.63;;;;;;;1.89;68.86;97123.34;5065958;28;20072;-57
2022/02/28 04:23:56;;;;;;;1.33;0.65;;;;;;;2.02;68.44;97145.13;5066299;28;20059;-55
2022/02/28 04:26:23;;;;;;;0.63;0.50;;;;;;;1.90;69.27;97152.28;5066332;28;20052;-56
2022/02/28 04:28:50;;;;;;;0.40;0.40;;;;;;;2.09;69.19;97164.59;5065783;28;20057;-56
2022/02/28 04:31:17;;;;;;;0.55;0.40;;;;;;;1.73;70.31;97152.97;5066169;28;20428;-56
2022/02/28 04:33:45;;;;;;;1.02;0.60;;;;;;;1.87;71.74;97180.19;5064681;28;20049;-58
2022/02/28 04:36:11;;;;;;;0.90;0.50;;;;;;;1.69;71.24;97141.06;5066444;28;20052;-55
2022/02/28 04:38:38;;;;;;;1.20;0.63;;;;;;;1.83;72.05;97173.75;5065751;28;20442;-57
2022/02/28 04:41:05;;;;;;;0.60;0.50;;;;;;;1.98;71.85;97178.81;5065639;28;20161;-57
2022/02/28 04:43:32;;;;;;;1.02;0.47;;;;;;;1.85;69.79;97176.97;5065106;28;20131;-55
2022/02/28 04:45:59;;;;;;;0.63;0.40;;;;;;;2.02;68.80;97163.44;5063957;28;20092;-59
2022/02/28 04:48:26;;;;;;;0.50;0.50;;;;;;;1.89;70.95;97156.09;5065441;28;20519;-56
2022/02/28 04:50:55;;;;;;;0.45;0.45;;;;;;;2.15;68.94;97149.66;5065332;28;20148;-60
2022/02/28 04:53:23;;;;;;;0.40;0.40;;;;;;;1.91;69.24;97167.53;5064090;28;20534;-57
2022/02/28 04:55:52;;;;;;;0.40;0.40;;;;;;;2.02;70.58;97177.09;5065982;28;20078;-56
2022/02/28 04:58:19;;;;;;;0.95;0.40;;;;;;;1.32;70.38;97098.56;5065110;28;20139;-56
2022/02/28 05:00:45;;;;;;;0.40;0.40;;;;;;;1.98;69.93;97181.53;5063777;28;20507;-57
2022/02/28 05:03:12;;;;;;;0.30;0.30;;;;;;;1.88;71.12;97179.09;5063880;28;20048;-56
2022/02/28 05:05:39;;;;;;;0.98;0.47;;;;;;;2.05;69.06;97181.91;5082305;28;20485;-57
2022/02/28 05:08:06;;;;;;;0.43;0.40;;;;;;;2.05;69.38;97198.31;5085694;28;20062;-56
2022/02/28 05:10:33;;;;;;;0.40;0.40;;;;;;;1.87;70.34;97159.16;5085808;28;20069;-56
2022/02/28 05:13:01;;;;;;;0.55;0.30;;;;;;;2.05;70.41;97188.19;5085254;28;20518;-56
2022/02/28 05:15:27;;;;;;;0.65;0.38;;;;;;;1.58;70.95;97122.50;5084297;28;20047;-56
2022/02/28 05:17:54;;;;;;;0.30;0.30;;;;;;;1.70;70.09;97136.38;5083566;28;20135;-57
2022/02/28 05:20:22;;;;;;;0.65;0.50;;;;;;;-0.30;71.45;96832.13;5083804;28;20060;-58
2022/02/28 05:22:48;;;;;;;0.40;0.40;;;;;;;1.97;71.40;97208.06;5083819;28;20055;-56
2022/02/28 05:25:15;;;;;;;0.32;0.32;;;;;;;2.03;71.66;97206.00;5085498;28;20059;-56
2022/02/28 05:27:44;;;;;;;0.50;0.40;;;;;;;2.10;72.17;97225.50;5085594;28;20056;-56
2022/02/28 05:30:14;;;;;;;0.75;0.30;;;;;;;2.22;69.87;97223.81;5085588;28;20082;-57
2022/02/28 05:32:41;;;;;;;0.90;0.40;;;;;;;2.20;67.58;97228.78;5069577;28;20048;-56
2022/02/28 05:35:10;;;;;;;0.90;0.60;;;;;;;2.48;67.29;97213.03;5056489;28;20322;-56
2022/02/28 05:37:37;;;;;;;1.08;0.50;;;;;;;2.70;66.81;97226.63;5063035;28;20055;-58
2022/02/28 05:40:06;;;;;;;1.40;0.82;;;;;;;2.80;67.67;97218.13;5063936;28;20056;-57
2022/02/28 05:42:32;;;;;;;1.20;0.55;;;;;;;3.04;65.45;97232.22;5063153;28;20049;-57
2022/02/28 05:44:59;;;;;;;1.65;0.70;;;;;;;2.93;65.00;97231.72;5064144;28;20049;-57
2022/02/28 05:47:26;;;;;;;1.75;0.90;;;;;;;3.05;65.33;97228.38;5063986;28;20058;-56
2022/02/28 05:49:52;;;;;;;0.65;0.60;;;;;;;2.91;65.28;97233.13;5061844;28;20506;-59
2022/02/28 05:52:20;;;;;;;0.40;0.40;;;;;;;2.49;65.38;97209.16;5062882;28;20045;-57
2022/02/28 05:54:47;;;;;;;1.02;0.63;;;;;;;2.81;66.39;97238.91;5063707;28;20048;-58
2022/02/28 05:57:14;;;;;;;0.35;0.35;;;;;;;2.71;66.20;97240.00;5062668;28;20052;-59
2022/02/28 05:59:41;;;;;;;0.43;0.38;;;;;;;2.70;67.48;97259.44;5062354;28;20060;-56
2022/02/28 06:02:08;;;;;;;1.35;0.70;;;;;;;2.81;68.09;97261.56;5063987;28;20061;-55
2022/02/28 06:04:34;;;;;;;0.88;0.40;;;;;;;2.58;67.86;97272.88;5068793;28;20048;-55
2022/02/28 06:07:01;;;;;;;1.95;1.35;;;;;;;2.55;67.77;97278.97;5084179;28;20731;-56
2022/02/28 06:09:28;;;;;;;1.00;0.50;;;;;;;2.34;68.98;97261.50;5083739;28;20126;-56
2022/02/28 06:11:55;;;;;;;0.75;0.50;;;;;;;2.41;69.21;97284.53;5084319;28;20453;-58
2022/02/28 06:14:21;;;;;;;0.50;0.50;;;;;;;2.57;67.08;97271.28;5084044;28;20520;-58
2022/02/28 06:16:48;;;;;;;0.77;0.55;;;;;;;2.46;66.37;97286.34;5084796;28;20204;-57
2022/02/28 06:19:17;;;;;;;0.75;0.55;;;;;;;2.34;65.21;97272.44;5083810;28;20056;-57
2022/02/28 06:21:44;;;;;;;1.50;0.55;;;;;;;2.64;65.73;97288.06;5084147;28;20431;-57
2022/02/28 06:24:10;;;;;;;1.20;0.50;;;;;;;2.56;65.51;97278.66;5083890;28;20048;-58
2022/02/28 06:26:37;;;;;;;0.50;0.45;;;;;;;2.79;63.69;97273.97;5082192;28;20052;-58
2022/02/28 06:29:04;;;;;;;0.75;0.63;;;;;;;2.91;62.40;97282.38;5070314;28;20053;-58
2022/02/28 06:31:30;;;;;;;2.20;0.70;;;;;;;3.08;62.23;97282.47;5063790;28;20063;-58
2022/02/28 06:33:57;;;;;;;2.45;1.10;;;;;;;2.64;63.87;97200.56;5063142;28;20448;-56
2022/02/28 06:36:24;;;;;;;1.40;0.68;;;;;;;3.18;63.24;97282.16;5062182;28;20461;-59
2022/02/28 06:38:50;;;;;;;1.63;0.90;;;;;;;2.28;63.44;97060.50;5063313;28;20655;-59
2022/02/28 06:41:17;;;;;;;1.38;0.60;;;;;;;3.35;61.76;97287.69;5063847;28;20067;-60
2022/02/28 06:43:44;;;;;;;1.48;0.70;;;;;;;3.17;61.31;97266.88;5062716;28;20048;-57
2022/02/28 06:46:11;;;;;;;1.45;0.80;;;;;;;0.22;64.03;96876.91;5062291;28;20443;-57
2022/02/28 06:48:38;;;;;;;0.65;0.50;;;;;;;2.85;62.94;97302.78;5059448;28;20431;-58
2022/02/28 06:51:10;;;;;;;0.40;0.40;;;;;;;2.50;63.19;97252.59;5063226;28;20534;-60
2022/02/28 06:53:37;;;;;;;2.88;0.98;;;;;;;2.71;63.67;97259.13;5063119;28;20060;-55
2022/02/28 06:56:04;;;;;;;1.35;0.70;;;;;;;0.61;59.87;96868.84;5063159;28;20051;-56
2022/02/28 06:58:31;;;;;;;1.50;0.77;;;;;;;2.81;60.40;97277.22;5061981;28;20426;-57
2022/02/28 07:00:58;;;;;;;0.70;0.60;;;;;;;2.51;61.37;97239.72;5061266;28;20523;-60
2022/02/28 07:03:25;;;;;;;1.00;0.60;;;;;;;2.80;60.09;97262.72;5062481;28;20052;-56
2022/02/28 07:05:54;;;;;;;0.75;0.70;;;;;;;3.56;59.23;97305.16;5060784;28;20084;-59
2022/02/28 07:08:21;;;;;;;1.58;0.68;;;;;;;3.61;59.43;97298.72;5065296;28;20533;-56
2022/02/28 07:10:50;;;;;;;1.15;0.60;;;;;;;2.75;59.30;97174.53;5066245;28;20496;-61
2022/02/28 07:13:17;;;;;;;1.95;0.80;;;;;;;3.50;59.16;97194.16;5064119;28;20048;-60
2022/02/28 07:15:45;;;;;;;2.45;0.77;;;;;;;4.01;59.44;97301.03;5065046;28;20048;-55
2022/02/28 07:18:14;;;;;;;2.65;1.27;;;;;;;4.39;59.12;97296.47;5064309;28;20160;-61
2022/02/28 07:20:41;;;;;;;1.63;0.70;;;;;;;4.01;57.70;97300.22;5066053;28;20090;-57
2022/02/28 07:23:08;;;;;;;1.48;1.10;;;;;;;4.52;57.68;97290.00;5060336;28;20416;-61
2022/02/28 07:25:35;;;;;;;1.83;0.80;;;;;;;4.68;58.17;97293.84;5066692;28;20055;-56
2022/02/28 07:28:03;;;;;;;1.35;0.60;;;;;;;2.70;54.43;96942.25;5066332;28;20147;-57
2022/02/28 07:30:30;;;;;;;1.05;0.60;;;;;;;4.25;54.81;97279.41;5066926;28;20062;-59
2022/02/28 07:32:58;;;;;;;1.23;1.05;;;;;;;3.85;58.00;97286.19;5064980;28;20439;-57
2022/02/28 07:35:32;;;;;;;1.05;0.80;;;;;;;4.27;55.96;97276.34;5064847;28;20054;-55
2022/02/28 07:38:00;;;;;;;0.70;0.57;;;;;;;4.45;55.16;97306.16;5064215;28;20049;-59
2022/02/28 07:40:27;;;;;;;1.13;0.70;;;;;;;4.65;54.93;97289.03;5066046;28;20093;-55
2022/02/28 07:42:54;;;;;;;0.50;0.50;;;;;;;4.47;56.69;97292.91;5066070;28;20071;-57
2022/02/28 07:45:23;;;;;;;0.50;0.50;;;;;;;3.49;57.90;97173.38;5064907;28;20195;-60
2022/02/28 07:47:50;;;;;;;1.33;0.65;;;;;;;4.28;57.13;97284.22;5065121;28;20044;-58
2022/02/28 07:50:17;;;;;;;1.35;0.40;;;;;;;3.74;59.35;97273.94;5064975;28;20060;-57
2022/02/28 07:52:44;;;;;;;0.50;0.50;;;;;;;4.24;55.93;97283.28;5063500;28;20044;-60
2022/02/28 07:55:11;;;;;;;0.50;0.50;;;;;;;4.09;58.05;97305.72;5050608;28;20055;-57
2022/02/28 07:57:38;;;;;;;0.90;0.60;;;;;;;3.46;56.68;97226.06;5063930;28;20053;-62
2022/02/28 08:00:07;;;;;;;1.15;0.60;;;;;;;3.99;56.12;97221.06;5064156;28;20330;-59
2022/02/28 08:02:34;;;;;;;0.98;0.57;;;;;;;4.14;54.16;97280.84;5065147;28;20167;-62
2022/02/28 08:05:01;;;;;;;1.35;0.50;;;;;;;4.77;54.90;97306.75;5063056;28;20058;-63
2022/02/28 08:07:28;;;;;;;1.25;0.90;;;;;;;4.60;54.71;97258.19;5063602;28;20049;-61
2022/02/28 08:09:55;;;;;;;1.05;0.50;;;;;;;5.16;53.25;97315.50;5063687;28;20106;-59
2022/02/28 08:12:21;;;;;;;1.08;0.50;;;;;;;4.60;54.37;97291.94;5065078;28;20350;-57
2022/02/28 08:14:48;;;;;;;1.45;0.60;;;;;;;5.02;54.73;97309.44;5065855;28;20052;-54
2022/02/28 08:17:15;;;;;;;0.60;0.60;;;;;;;5.11;53.17;97323.09;5065998;28;20059;-57
2022/02/28 08:19:42;;;;;;;4.25;1.63;;;;;;;4.97;52.44;97314.28;5065177;28;20141;-54
2022/02/28 08:22:08;;;;;;;5.97;2.72;;;;;;;5.23;54.50;97309.50;5065059;28;20048;-58
2022/02/28 08:24:35;;;;;;;1.65;0.85;;;;;;;5.25;52.43;97320.97;5062898;28;20094;-56
2022/02/28 08:27:02;;;;;;;1.42;0.80;;;;;;;4.90;51.26;97272.81;5065048;28;20106;-57
2022/02/28 08:29:28;;;;;;;1.23;0.75;;;;;;;4.81;53.48;97313.19;5064144;28;20056;-55
2022/02/28 08:31:55;;;;;;;1.38;0.77;;;;;;;4.80;55.29;97317.06;5065008;28;20056;-59
2022/02/28 08:34:22;;;;;;;0.52;0.50;;;;;;;4.88;53.81;97264.09;5064242;28;20045;-56
2022/02/28 08:36:49;;;;;;;0.82;0.65;;;;;;;4.95;53.59;97287.16;5064256;28;20056;-61
2022/02/28 08:39:15;;;;;;;0.70;0.63;;;;;;;5.25;53.72;97290.78;5065108;28;20135;-56
2022/02/28 08:41:42;;;;;;;1.08;0.65;;;;;;;5.36;53.30;97324.97;5064472;28;20053;-58
2022/02/28 08:44:09;;;;;;;0.60;0.60;;;;;;;5.13;53.67;97324.41;5062504;28;20044;-59
2022/02/28 08:46:37;;;;;;;1.05;0.73;;;;;;;4.57;54.39;97254.19;5061221;28;20487;-55
2022/02/28 08:49:05;;;;;;;0.63;0.60;;;;;;;5.15;52.11;97324.91;5063858;28;20087;-55
2022/02/28 08:51:32;;;;;;;2.60;0.85;;;;;;;5.02;54.62;97325.09;5063438;28;20060;-55
2022/02/28 08:53:59;;;;;;;1.88;0.80;;;;;;;4.61;55.18;97331.97;5063584;28;20049;-61
2022/02/28 08:56:25;;;;;;;1.02;0.55;;;;;;;5.00;52.83;97338.31;5061585;28;20056;-59
2022/02/28 08:58:52;;;;;;;5.35;0.68;;;;;;;4.64;54.02;97346.97;5060255;28;20131;-58
2022/02/28 09:01:19;;;;;;;1.10;0.70;;;;;;;4.18;55.03;97270.88;5065120;28;20059;-61
2022/02/28 09:03:46;;;;;;;1.58;0.70;;;;;;;4.52;56.75;97344.88;5050001;28;20077;-61
2022/02/28 09:06:12;;;;;;;1.17;0.60;;;;;;;3.80;57.07;97294.56;5061523;28;20052;-59
2022/02/28 09:08:39;;;;;;;0.98;0.63;;;;;;;4.07;55.52;97277.81;5061838;28;20584;-56
2022/02/28 09:11:06;;;;;;;1.02;0.68;;;;;;;4.57;55.88;97354.88;5063701;28;20079;-56
2022/02/28 09:13:34;;;;;;;0.77;0.63;;;;;;;4.83;55.17;97321.91;5063699;28;20519;-56
2022/02/28 09:16:02;;;;;;;0.88;0.60;;;;;;;5.18;54.63;97350.88;5062735;28;20059;-56
2022/02/28 09:18:29;;;;;;;1.35;0.70;;;;;;;5.02;53.93;97339.63;5064512;28;20049;-59
2022/02/28 09:20:56;;;;;;;1.83;0.90;;;;;;;4.17;54.49;97228.13;5063634;28;20059;-60
2022/02/28 09:23:23;;;;;;;1.42;0.88;;;;;;;4.95;56.35;97324.81;5063177;28;20526;-59
2022/02/28 09:25:50;;;;;;;0.70;0.70;;;;;;;4.75;54.94;97330.97;5064186;28;20049;-59
2022/02/28 09:28:17;;;;;;;0.82;0.60;;;;;;;4.46;57.34;97313.25;5063318;28;20124;-56
2022/02/28 09:30:44;;;;;;;0.70;0.60;;;;;;;4.75;56.44;97359.22;5062285;28;20048;-58
2022/02/28 09:33:11;;;;;;;1.13;0.63;;;;;;;4.39;57.58;97301.19;5062224;28;20599;-57
2022/02/28 09:35:38;;;;;;;1.77;0.82;;;;;;;4.57;56.65;97295.34;5061131;28;20052;-59
2022/02/28 09:38:05;;;;;;;1.25;0.70;;;;;;;5.17;55.99;97354.78;5062772;28;20149;-58
2022/02/28 09:40:34;;;;;;;2.13;1.00;;;;;;;4.69;57.32;97339.34;5062953;28;20059;-56
2022/02/28 09:43:03;;;;;;;1.15;0.73;;;;;;;4.36;57.88;97280.69;5063372;28;20080;-57
2022/02/28 09:45:31;;;;;;;1.83;0.70;;;;;;;4.37;57.19;97348.13;5060382;28;20123;-56
2022/02/28 09:47:58;;;;;;;1.40;0.75;;;;;;;4.39;58.17;97345.84;5061312;28;20063;-55
2022/02/28 09:50:26;;;;;;;1.73;0.60;;;;;;;4.71;57.33;97368.41;5063421;28;20048;-59
2022/02/28 09:52:52;;;;;;;0.93;0.60;;;;;;;4.34;57.23;97315.88;5063073;28;20048;-59
2022/02/28 09:55:19;;;;;;;3.70;1.02;;;;;;;5.19;57.13;97363.47;5060449;28;20048;-55
2022/02/28 09:57:48;;;;;;;1.30;0.68;;;;;;;4.57;56.28;97361.16;5057983;28;20050;-55
2022/02/28 10:00:25;;;;;;;2.15;0.77;;;;;;;4.68;57.77;97359.69;5052201;28;20049;-55
2022/02/28 10:02:56;;;;;;;0.63;0.55;;;;;;;4.68;56.97;97358.09;5062366;28;20059;-60
2022/02/28 10:05:24;;;;;;;0.60;0.50;;;;;;;4.97;55.39;97355.44;5062159;28;20064;-58
2022/02/28 10:07:56;;;;;;;4.00;1.77;;;;;;;4.67;54.72;97228.34;5062363;28;20053;-60
2022/02/28 10:10:26;;;;;;;6.32;2.03;;;;;;;6.01;52.12;97355.50;5062942;28;20041;-61
2022/02/28 10:12:55;;;;;;;1.05;0.93;;;;;;;4.85;52.17;97297.69;5058899;28;20059;-58
2022/02/28 10:15:25;;;;;;;0.65;0.60;;;;;;;5.55;53.77;97361.88;5063356;28;20151;-58
2022/02/28 10:18:01;;;;;;;0.98;0.50;;;;;;;5.38;53.56;97355.66;5062205;28;20054;-55
2022/02/28 10:20:30;;;;;;;2.03;0.90;;;;;;;5.43;53.43;97358.22;5060616;28;20123;-57
2022/02/28 10:23:02;;;;;;;1.15;0.63;;;;;;;4.89;54.43;97359.00;5062679;28;20048;-60
2022/02/28 10:25:34;;;;;;;0.95;0.70;;;;;;;4.62;54.56;97350.03;5062202;28;20072;-56
2022/02/28 10:28:24;;;;;;;0.90;0.60;;;;;;;4.95;53.73;97357.72;5062075;28;20551;-55
2022/02/28 10:30:54;;;;;;;1.35;0.50;;;;;;;5.17;53.46;97350.06;5063060;28;20052;-57
2022/02/28 10:33:29;;;;;;;4.57;0.50;;;;;;;4.95;53.37;97357.72;5061522;28;20534;-52
2022/02/28 10:36:11;;;;;;;0.68;0.40;;;;;;;4.68;51.94;97351.47;5042728;28;20519;-57
2022/02/28 10:39:10;;;;;;;0.93;0.50;;;;;;;4.40;52.81;97358.44;5042951;28;20629;-54
2022/02/28 10:41:39;;;;;;;0.47;0.47;;;;;;;4.49;53.83;97361.97;5039159;28;20148;-54
2022/02/28 10:44:11;;;;;;;2.38;0.93;;;;;;;4.58;54.58;97354.53;5043041;28;20067;-53
2022/02/28 10:46:42;;;;;;;1.17;0.80;;;;;;;4.87;54.63;97359.34;5043244;28;20520;-55
2022/02/28 10:49:20;;;;;;;0.40;0.40;;;;;;;4.47;54.74;97363.44;5042100;28;20136;-53
2022/02/28 10:51:46;;;;;;;1.20;0.70;;;;;;;5.04;53.74;97355.78;5043400;28;20053;-52
2022/02/28 10:54:25;;;;;;;1.80;0.50;;;;;;;5.22;53.73;97351.81;5041020;28;20410;-54
2022/02/28 10:57:24;;;;;;;2.88;0.70;;;;;;;4.87;54.29;97355.81;5042901;28;20051;-56
2022/02/28 10:59:54;;;;;;;1.48;0.90;;;;;;;4.40;54.31;97355.69;5037905;28;20045;-54
2022/02/28 11:02:41;;;;;;;0.60;0.47;;;;;;;4.77;54.74;97361.63;5043085;28;20130;-53
2022/02/28 11:05:12;;;;;;;0.90;0.70;;;;;;;4.85;53.87;97361.63;5041808;28;20072;-54
2022/02/28 11:07:54;;;;;;;1.00;0.73;;;;;;;5.12;53.48;97363.19;5054948;28;20052;-54
2022/02/28 11:10:21;;;;;;;2.28;0.70;;;;;;;5.17;54.16;97354.78;5081424;28;20494;-53
2022/02/28 11:12:50;;;;;;;2.95;0.88;;;;;;;4.99;53.52;97364.16;5060686;28;20145;-59
2022/02/28 11:15:21;;;;;;;1.00;0.80;;;;;;;5.19;52.74;97352.47;5062827;28;20048;-59
2022/02/28 11:17:50;;;;;;;1.58;0.60;;;;;;;5.01;52.37;97328.97;5055208;28;20210;-56
2022/02/28 11:20:20;;;;;;;2.17;0.90;;;;;;;5.02;54.36;97355.28;5061157;28;20167;-56
2022/02/28 11:22:48;;;;;;;2.30;1.45;;;;;;;5.01;54.09;97361.91;5062265;28;20059;-56
2022/02/28 11:25:18;;;;;;;1.08;0.60;;;;;;;5.03;54.03;97304.72;5062235;28;20577;-54
2022/02/28 11:27:47;;;;;;;0.73;0.60;;;;;;;5.36;52.99;97341.47;5053255;28;20060;-56
2022/02/28 11:30:22;;;;;;;3.50;0.65;;;;;;;5.76;52.21;97364.69;5062080;28;20052;-57
2022/02/28 11:33:01;;;;;;;1.13;0.70;;;;;;;5.86;51.72;97361.59;5061309;28;20981;-56
2022/02/28 11:35:48;;;;;;;1.58;0.70;;;;;;;4.96;53.84;97367.56;5061812;28;20310;-57
2022/02/28 11:38:17;;;;;;;0.40;0.40;;;;;;;4.94;56.30;97372.56;5061702;28;20438;-55
2022/02/28 11:40:55;;;;;;;0.73;0.50;;;;;;;5.08;56.04;97378.69;5054613;28;20133;-60
2022/02/28 11:43:27;;;;;;;1.50;0.60;;;;;;;4.69;54.29;97377.78;5049861;28;20041;-59
2022/02/28 11:45:58;;;;;;;0.45;0.45;;;;;;;4.17;55.15;97378.09;5060877;28;20427;-57